Time;durP1;ratioP1;P1;durP2;ratioP2;P2;SDS_P1;SDS_P2;PMS_P1;PMS_P2;Temp;Humidity;BMP_temperature;BMP_pressure;BME280_temperature;BME280_humidity;BME280_pressure;Samples;Min_cycle;Max_cycle;Signal;HPM_P1;HPM_P2
2022/09/12 00:02:10;;;;;;;;;;;;;;;22.36;60.34;101280.78;5017242;28;4185;-72
2022/09/12 00:04:37;;;;;;;;;;;;;;;22.36;59.99;101275.75;5013061;28;4164;-72
2022/09/12 00:07:03;;;;;;;;;;;;;;;22.34;60.06;101272.03;5030589;28;5231;-72
2022/09/12 00:09:29;;;;;;;;;;;;;;;22.37;60.02;101282.25;5034916;28;4071;-72
2022/09/12 00:11:56;;;;;;;;;;;;;;;22.37;59.98;101276.47;5033315;28;5269;-71
2022/09/12 00:14:22;;;;;;;;;;;;;;;22.36;60.10;101272.84;5032040;28;4232;-72
2022/09/12 00:16:48;;;;;;;;;;;;;;;22.37;59.92;101270.72;5031322;28;4242;-72
2022/09/12 00:19:15;;;;;;;;;;;;;;;22.37;59.87;101267.81;5032866;28;5476;-72
2022/09/12 00:21:41;;;;;;;;;;;;;;;22.37;59.81;101270.72;5034864;28;5135;-72
2022/09/12 00:24:08;;;;;;;;;;;;;;;22.37;60.05;101270.72;5035276;28;4168;-72
2022/09/12 00:26:34;;;;;;;;;;;;;;;22.36;59.94;101269.25;5028382;28;5330;-72
2022/09/12 00:29:00;;;;;;;;;;;;;;;22.37;59.81;101279.38;5036057;28;4123;-72
2022/09/12 00:31:27;;;;;;;;;;;;;;;22.36;60.00;101275.00;5029335;28;5214;-72
2022/09/12 00:33:54;;;;;;;;;;;;;;;22.35;60.10;101282.16;5035578;28;4354;-72
2022/09/12 00:36:21;;;;;;;;;;;;;;;22.36;59.75;101272.84;5031223;28;4352;-72
2022/09/12 00:38:47;;;;;;;;;;;;;;;22.36;60.13;101278.63;5030331;28;4549;-72
2022/09/12 00:41:18;;;;;;;;;;;;;;;22.35;59.89;101274.25;5017197;28;5370;-72
2022/09/12 00:43:45;;;;;;;;;;;;;;;22.36;59.77;101275.00;5018396;28;4239;-72
2022/09/12 00:46:16;;;;;;;;;;;;;;;22.36;59.72;101275.75;5015543;28;4228;-72
2022/09/12 00:48:44;;;;;;;;;;;;;;;22.35;59.69;101274.25;5011793;28;4536;-72
2022/09/12 00:51:11;;;;;;;;;;;;;;;22.36;59.91;101272.13;5012774;28;5409;-72
2022/09/12 00:53:38;;;;;;;;;;;;;;;22.35;59.76;101270.63;5030619;28;6336;-72
2022/09/12 00:56:04;;;;;;;;;;;;;;;22.34;59.76;101274.91;5045295;28;4178;-73
2022/09/12 00:58:31;;;;;;;;;;;;;;;22.34;59.92;101275.66;5017334;28;4180;-72
2022/09/12 01:00:58;;;;;;;;;;;;;;;22.34;59.60;101272.03;5017260;28;4340;-72
2022/09/12 01:03:24;;;;;;;;;;;;;;;22.35;59.74;101279.28;5003931;28;4349;-72
2022/09/12 01:05:58;;;;;;;;;;;;;;;22.35;59.42;101270.63;5008678;28;4492;-68
2022/09/12 01:08:25;;;;;;;;;;;;;;;22.34;59.71;101277.81;5015685;28;4225;-72
2022/09/12 01:10:51;;;;;;;;;;;;;;;22.35;59.77;101270.63;5025845;28;4209;-72
2022/09/12 01:13:17;;;;;;;;;;;;;;;22.35;59.51;101279.28;5032657;28;4152;-71
2022/09/12 01:15:44;;;;;;;;;;;;;;;22.34;59.67;101272.03;5032133;28;4219;-72
2022/09/12 01:18:13;;;;;;;;;;;;;;;22.34;59.64;101267.00;5031151;28;4206;-72
2022/09/12 01:20:50;;;;;;;;;;;;;;;22.34;59.79;101266.25;5042485;28;5316;-71
2022/09/12 01:23:22;;;;;;;;;;;;;;;22.34;59.52;101266.25;5035883;28;4151;-72
2022/09/12 01:26:08;;;;;;;;;;;;;;;22.33;59.43;101264.75;5031057;28;4218;-72
2022/09/12 01:28:57;;;;;;;;;;;;;;;22.34;59.73;101261.22;5027114;28;4140;-72
2022/09/12 01:31:27;;;;;;;;;;;;;;;22.34;59.72;101263.38;5027151;28;4320;-72
2022/09/12 01:34:09;;;;;;;;;;;;;;;22.34;59.29;101260.50;5026708;28;4574;-72
2022/09/12 01:36:37;;;;;;;;;;;;;;;22.33;59.63;101264.75;5033805;28;4594;-72
2022/09/12 01:39:15;;;;;;;;;;;;;;;22.34;59.65;101255.47;5047190;28;4166;-72
2022/09/12 01:42:00;;;;;;;;;;;;;;;22.32;59.50;101258.25;5036701;28;5257;-72
2022/09/12 01:44:33;;;;;;;;;;;;;;;22.33;59.29;101253.22;5031919;28;4139;-72
2022/09/12 01:47:01;;;;;;;;;;;;;;;22.33;59.32;101264.75;5030126;28;4284;-72
2022/09/12 01:49:32;;;;;;;;;;;;;;;22.31;59.52;101258.88;5024903;28;4531;-72
2022/09/12 01:52:11;;;;;;;;;;;;;;;22.31;59.35;101261.78;5043921;28;4165;-71
2022/09/12 01:54:39;;;;;;;;;;;;;;;22.31;59.25;101256.00;5032999;28;4225;-73
2022/09/12 01:57:08;;;;;;;;;;;;;;;22.30;59.27;101257.41;5029518;28;3975;-72
2022/09/12 01:59:36;;;;;;;;;;;;;;;22.30;59.48;101255.28;5035661;28;4078;-72
2022/09/12 02:02:05;;;;;;;;;;;;;;;22.31;59.37;101261.78;5050297;28;4207;-72
2022/09/12 02:04:40;;;;;;;;;;;;;;;22.30;59.29;101258.16;5049723;28;5339;-72
2022/09/12 02:07:13;;;;;;;;;;;;;;;22.30;59.35;101255.28;5050241;28;5407;-72
2022/09/12 02:09:41;;;;;;;;;;;;;;;22.30;59.39;101254.53;5048770;28;4382;-72
2022/09/12 02:12:08;;;;;;;;;;;;;;;22.30;59.12;101257.41;5051786;28;4239;-72
2022/09/12 02:14:39;;;;;;;;;;;;;;;22.29;59.42;101253.06;5035129;28;4120;-72
2022/09/12 02:17:07;;;;;;;;;;;;;;;22.28;59.55;101258.06;5039136;28;4120;-72
2022/09/12 02:19:35;;;;;;;;;;;;;;;22.29;59.10;101258.81;5037606;28;4087;-72
2022/09/12 02:22:01;;;;;;;;;;;;;;;22.28;59.40;101263.84;5038047;28;4238;-72
2022/09/12 02:24:32;;;;;;;;;;;;;;;22.28;59.09;101252.28;5035510;28;4218;-72
2022/09/12 02:27:09;;;;;;;;;;;;;;;22.26;59.21;101265.88;5035868;28;4045;-72
2022/09/12 02:29:35;;;;;;;;;;;;;;;22.26;59.39;101257.22;5050708;28;4063;-72
2022/09/12 02:32:07;;;;;;;;;;;;;;;22.27;59.06;101258.72;5052543;28;5317;-73
2022/09/12 02:34:40;;;;;;;;;;;;;;;22.24;59.43;101262.91;5045751;28;5266;-72
2022/09/12 02:37:16;;;;;;;;;;;;;;;22.25;59.44;101258.63;5046925;28;4147;-72
2022/09/12 02:39:42;;;;;;;;;;;;;;;22.26;59.23;101260.84;5037091;28;4257;-72
2022/09/12 02:42:10;;;;;;;;;;;;;;;22.24;59.15;101255.03;5034778;28;4282;-72
2022/09/12 02:44:37;;;;;;;;;;;;;;;22.25;59.11;101259.38;5038352;28;4168;-72
2022/09/12 02:47:07;;;;;;;;;;;;;;;22.25;59.38;101259.38;5029634;28;4235;-72
2022/09/12 02:49:34;;;;;;;;;;;;;;;22.24;59.14;101268.69;5050062;28;4192;-72
2022/09/12 02:52:00;;;;;;;;;;;;;;;22.25;59.03;101264.41;5039749;28;4146;-72
2022/09/12 02:54:27;;;;;;;;;;;;;;;22.22;59.16;101259.94;5036839;28;4235;-72
2022/09/12 02:56:53;;;;;;;;;;;;;;;22.24;59.13;101263.66;5050038;28;4264;-71
2022/09/12 02:59:20;;;;;;;;;;;;;;;22.23;58.92;101255.66;5033723;28;4146;-72
2022/09/12 03:01:56;;;;;;;;;;;;;;;22.22;59.23;101257.03;5038737;28;4131;-72
2022/09/12 03:04:36;;;;;;;;;;;;;;;22.23;58.93;101261.44;5047859;28;5354;-72
2022/09/12 03:07:11;;;;;;;;;;;;;;;22.21;59.01;101259.19;5014890;28;4389;-72
2022/09/12 03:09:41;;;;;;;;;;;;;;;22.22;59.02;101259.94;5029658;28;4224;-72
2022/09/12 03:12:16;;;;;;;;;;;;;;;22.22;59.15;101254.91;5045887;28;4383;-72
2022/09/12 03:14:46;;;;;;;;;;;;;;;22.21;59.07;101259.19;5053731;28;4173;-72
2022/09/12 03:17:31;;;;;;;;;;;;;;;22.21;59.27;101255.53;5033294;28;4163;-72
2022/09/12 03:20:02;;;;;;;;;;;;;;;22.20;58.95;101256.94;5036240;28;5358;-72
2022/09/12 03:22:50;;;;;;;;;;;;;;;22.21;58.97;101259.19;5042000;28;4161;-72
2022/09/12 03:25:17;;;;;;;;;;;;;;;22.23;59.15;101249.88;5049673;28;4144;-71
2022/09/12 03:27:46;;;;;;;;;;;;;;;22.22;58.98;101254.91;5036666;28;4369;-71
2022/09/12 03:30:12;;;;;;;;;;;;;;;22.24;58.82;101254.25;5035668;28;5292;-72
2022/09/12 03:32:39;;;;;;;;;;;;;;;22.23;58.94;101249.88;5035251;28;4128;-72
2022/09/12 03:35:06;;;;;;;;;;;;;;;22.20;58.93;101251.19;5036995;28;4195;-72
2022/09/12 03:37:32;;;;;;;;;;;;;;;22.17;58.85;101251.09;5053810;28;4176;-72
2022/09/12 03:39:59;;;;;;;;;;;;;;;22.18;58.95;101249.69;5035758;28;4156;-72
2022/09/12 03:42:26;;;;;;;;;;;;;;;22.18;59.12;101255.44;5033636;28;5383;-72
2022/09/12 03:44:52;;;;;;;;;;;;;;;22.18;58.74;101261.22;5036017;28;5799;-71
2022/09/12 03:47:18;;;;;;;;;;;;;;;22.18;58.88;101261.22;5034378;28;4308;-72
2022/09/12 03:49:45;;;;;;;;;;;;;;;22.18;58.84;101266.25;5030410;28;5027;-72
2022/09/12 03:52:11;;;;;;;;;;;;;;;22.16;58.86;101264.00;5036828;28;5535;-72
2022/09/12 03:54:38;;;;;;;;;;;;;;;22.18;58.71;101277.78;5035537;28;4518;-72
2022/09/12 03:57:04;;;;;;;;;;;;;;;22.16;58.83;101269.78;5035791;28;5198;-72
2022/09/12 03:59:31;;;;;;;;;;;;;;;22.21;58.88;101276.50;5036429;28;4138;-72
2022/09/12 04:01:57;;;;;;;;;;;;;;;22.17;58.66;101268.38;5033593;28;4128;-72
2022/09/12 04:04:24;;;;;;;;;;;;;;;22.03;58.19;101267.72;5033719;28;4441;-67
2022/09/12 04:06:50;;;;;;;;;;;;;;;21.46;55.61;101265.03;5033049;28;5418;-72
2022/09/12 04:09:16;;;;;;;;;;;;;;;21.71;55.95;101261.94;5037118;28;5482;-72
2022/09/12 04:11:43;;;;;;;;;;;;;;;21.80;57.52;101262.31;5036547;28;4207;-72
2022/09/12 04:14:09;;;;;;;;;;;;;;;21.98;57.29;101271.81;5029207;28;4294;-72
2022/09/12 04:16:35;;;;;;;;;;;;;;;22.06;56.78;101266.44;5034888;28;4209;-72
2022/09/12 04:19:02;;;;;;;;;;;;;;;22.10;57.10;101266.59;5027241;28;4231;-72
2022/09/12 04:21:28;;;;;;;;;;;;;;;22.09;57.37;101265.13;5033459;28;4218;-71
2022/09/12 04:23:54;;;;;;;;;;;;;;;22.13;57.42;101265.31;5023742;28;4254;-70
2022/09/12 04:26:21;;;;;;;;;;;;;;;22.13;57.03;101265.31;5036662;28;4233;-72
2022/09/12 04:28:47;;;;;;;;;;;;;;;22.13;57.49;101276.13;5035489;28;4116;-72
2022/09/12 04:31:16;;;;;;;;;;;;;;;22.13;57.34;101273.97;5032687;28;5323;-73
2022/09/12 04:33:43;;;;;;;;;;;;;;;22.13;57.43;101268.19;5035841;28;5351;-72
2022/09/12 04:36:10;;;;;;;;;;;;;;;22.13;57.61;101265.31;5036355;28;4173;-74
2022/09/12 04:38:37;;;;;;;;;;;;;;;22.13;57.80;101262.44;5034118;28;4293;-74
2022/09/12 04:41:13;;;;;;;;;;;;;;;22.13;57.53;101262.44;5033412;28;4194;-72
2022/09/12 04:43:39;;;;;;;;;;;;;;;22.14;57.60;101266.06;5032010;28;4176;-72
2022/09/12 04:46:06;;;;;;;;;;;;;;;22.13;57.89;101271.09;5036119;28;5281;-71
2022/09/12 04:48:32;;;;;;;;;;;;;;;22.12;57.78;101272.47;5030066;28;4189;-72
2022/09/12 04:51:08;;;;;;;;;;;;;;;22.13;57.95;101271.09;5034716;28;4192;-72
2022/09/12 04:53:35;;;;;;;;;;;;;;;22.04;58.47;101275.00;5026057;28;5484;-62
2022/09/12 04:56:02;;;;;;;;;;;;;;;22.08;58.44;101275.19;5036103;28;4145;-63
2022/09/12 04:58:29;;;;;;;;;;;;;;;22.06;58.53;101277.22;5029812;28;5731;-61
2022/09/12 05:00:56;;;;;;;;;;;;;;;22.09;58.50;101282.44;5033301;28;4349;-61
2022/09/12 05:03:22;;;;;;;;;;;;;;;22.11;58.40;101273.13;5040351;28;4003;-59
2022/09/12 05:05:49;;;;;;;;;;;;;;;22.12;58.02;101263.81;5030507;28;4220;-61
2022/09/12 05:08:21;;;;;;;;;;;;;;;22.13;58.44;101264.56;5032825;28;5316;-61
2022/09/12 05:10:47;;;;;;;;;;;;;;;22.09;58.31;101270.91;5030030;28;5479;-61
2022/09/12 05:13:14;;;;;;;;;;;;;;;22.07;58.15;101270.78;5030512;28;4127;-60
2022/09/12 05:15:40;;;;;;;;;;;;;;;22.08;58.53;101274.41;5032940;28;4135;-62
2022/09/12 05:18:06;;;;;;;;;;;;;;;22.04;58.54;101269.22;5031231;28;4152;-62
2022/09/12 05:20:33;;;;;;;;;;;;;;;22.09;58.54;101265.13;5037180;28;4149;-62
2022/09/12 05:23:00;;;;;;;;;;;;;;;22.11;58.13;101262.34;5034796;28;4134;-62
2022/09/12 05:25:26;;;;;;;;;;;;;;;22.12;58.17;101266.69;5037054;28;4138;-62
2022/09/12 05:27:53;;;;;;;;;;;;;;;22.12;58.34;101266.69;5034717;28;4244;-62
2022/09/12 05:30:19;;;;;;;;;;;;;;;22.10;58.65;101278.13;5033144;28;4138;-62
2022/09/12 05:32:45;;;;;;;;;;;;;;;22.12;58.91;101275.34;5033101;28;4274;-62
2022/09/12 05:35:12;;;;;;;;;;;;;;;22.12;58.71;101277.50;5026453;28;4150;-62
2022/09/12 05:37:38;;;;;;;;;;;;;;;22.07;59.21;101285.22;5032583;28;4214;-60
2022/09/12 05:40:07;;;;;;;;;;;;;;;22.12;59.64;101286.88;5025449;28;5025;-71
2022/09/12 05:42:33;;;;;;;;;;;;;;;22.50;60.23;101287.19;5022349;28;4236;-72
2022/09/12 05:45:00;;;;;;;;;;;;;;;22.70;59.22;101284.44;5031901;28;4333;-72
2022/09/12 05:47:26;;;;;;;;;;;;;;;22.83;58.79;101291.47;5034333;28;4060;-70
2022/09/12 05:49:53;;;;;;;;;;;;;;;22.91;58.57;101291.09;5031316;28;4194;-74
2022/09/12 05:52:19;;;;;;;;;;;;;;;22.93;58.02;101289.03;5035267;28;4249;-78
2022/09/12 05:54:47;;;;;;;;;;;;;;;23.00;58.35;101290.81;5030303;28;5355;-73
2022/09/12 05:57:13;;;;;;;;;;;;;;;22.97;57.97;101294.97;5028479;28;4205;-79
2022/09/12 05:59:39;;;;;;;;;;;;;;;23.01;57.88;101297.31;5033299;28;5494;-75
2022/09/12 06:02:07;;;;;;;;;;;;;;;23.06;57.98;101298.97;5027748;28;5604;-74
2022/09/12 06:04:33;;;;;;;;;;;;;;;23.08;58.00;101301.22;5017840;28;4127;-74
2022/09/12 06:06:59;;;;;;;;;;;;;;;23.10;57.95;101298.41;5014358;28;4220;-72
2022/09/12 06:09:26;;;;;;;;;;;;;;;22.92;58.47;101307.75;5014299;28;5413;-74
2022/09/12 06:11:53;;;;;;;;;;;;;;;22.93;58.45;101312.13;5017505;28;4203;-73
2022/09/12 06:14:19;;;;;;;;;;;;;;;22.99;58.31;101306.63;5013082;28;5292;-72
2022/09/12 06:16:46;;;;;;;;;;;;;;;23.06;57.98;101313.41;5013895;28;4189;-69
2022/09/12 06:19:14;;;;;;;;;;;;;;;23.09;57.43;101317.13;5015633;28;4204;-69
2022/09/12 06:21:40;;;;;;;;;;;;;;;23.14;57.36;101316.66;5018642;28;4226;-78
2022/09/12 06:24:06;;;;;;;;;;;;;;;23.03;57.84;101319.78;5016260;28;4270;-74
2022/09/12 06:26:32;;;;;;;;;;;;;;;23.08;57.54;101321.44;5015862;28;4228;-74
2022/09/12 06:28:59;;;;;;;;;;;;;;;23.14;57.53;101318.81;5015994;28;4158;-71
2022/09/12 06:31:27;;;;;;;;;;;;;;;23.09;57.06;101317.91;5015818;28;4154;-71
2022/09/12 06:33:54;;;;;;;;;;;;;;;23.13;57.13;101317.31;5034538;28;4172;-71
2022/09/12 06:36:21;;;;;;;;;;;;;;;23.03;57.06;101325.56;5037344;28;5653;-77
2022/09/12 06:38:47;;;;;;;;;;;;;;;22.93;57.61;101317.91;5022793;28;4250;-74
2022/09/12 06:41:14;;;;;;;;;;;;;;;22.92;57.58;101321.44;5031956;28;4398;-73
2022/09/12 06:43:40;;;;;;;;;;;;;;;23.09;57.35;101322.91;5031933;28;4352;-71
2022/09/12 06:46:07;;;;;;;;;;;;;;;23.14;56.91;101318.81;5036640;28;5635;-69
2022/09/12 06:48:33;;;;;;;;;;;;;;;23.24;56.61;101321.38;5035464;28;4571;-72
2022/09/12 06:51:08;;;;;;;;;;;;;;;23.15;56.61;101314.50;5032253;28;4164;-72
2022/09/12 06:53:35;;;;;;;;;;;;;;;23.00;57.00;101316.06;5038073;28;4206;-67
2022/09/12 06:56:08;;;;;;;;;;;;;;;22.16;57.15;101315.91;5028460;28;4198;-79
2022/09/12 06:58:34;;;;;;;;;;;;;;;22.18;57.86;101310.25;5024313;28;4289;-79
2022/09/12 07:01:05;;;;;;;;;;;;;;;22.57;56.23;101300.47;5034271;28;4199;-75
2022/09/12 07:03:31;;;;;;;;;;;;;;;22.61;55.66;101310.69;5037866;28;4649;-79
2022/09/12 07:06:07;;;;;;;;;;;;;;;22.64;55.21;101307.25;5037644;28;5463;-73
2022/09/12 07:08:34;;;;;;;;;;;;;;;22.51;55.38;101303.09;5038638;28;4369;-80
2022/09/12 07:11:07;;;;;;;;;;;;;;;22.33;55.37;101308.03;5038434;28;4196;-71
2022/09/12 07:13:33;;;;;;;;;;;;;;;22.51;55.25;101302.34;5043493;28;4245;-78
2022/09/12 07:16:03;;;;;;;;;;;;;;;22.58;55.14;101304.09;5042866;28;4118;-74
2022/09/12 07:18:29;;;;;;;;;;;;;;;22.77;55.12;101302.78;5039788;28;4384;-76
2022/09/12 07:20:58;;;;;;;;;;;;;;;22.80;55.35;101307.97;5044812;28;4095;-73
2022/09/12 07:23:24;;;;;;;;;;;;;;;22.63;55.66;101308.69;5041283;28;4215;-73
2022/09/12 07:25:52;;;;;;;;;;;;;;;22.43;55.76;101313.53;5038726;28;4160;-69
2022/09/12 07:28:18;;;;;;;;;;;;;;;22.24;56.36;101311.94;5041343;28;5471;-78
2022/09/12 07:30:44;;;;;;;;;;;;;;;22.25;56.67;101316.34;5041316;28;4058;-76
2022/09/12 07:33:11;;;;;;;;;;;;;;;22.13;57.06;101310.72;5037761;28;4291;-74
2022/09/12 07:35:37;;;;;;;;;;;;;;;22.25;56.96;101311.31;5033859;28;4072;-76
2022/09/12 07:38:03;;;;;;;;;;;;;;;22.26;56.77;101307.00;5039532;28;4554;-74
2022/09/12 07:40:30;;;;;;;;;;;;;;;22.26;56.72;101301.25;5036651;28;4226;-74
2022/09/12 07:42:56;;;;;;;;;;;;;;;22.26;56.81;101307.00;5036596;28;4262;-74
2022/09/12 07:45:22;;;;;;;;;;;;;;;22.29;56.83;101316.53;5034373;28;5256;-73
2022/09/12 07:47:52;;;;;;;;;;;;;;;22.27;56.88;101313.53;5039520;28;5331;-74
2022/09/12 07:50:18;;;;;;;;;;;;;;;22.28;57.08;101309.25;5031458;28;4486;-73
2022/09/12 07:52:44;;;;;;;;;;;;;;;22.25;56.92;101310.56;5038932;28;4392;-73
2022/09/12 07:55:11;;;;;;;;;;;;;;;22.27;57.17;101317.16;5035226;28;4202;-73
2022/09/12 07:57:37;;;;;;;;;;;;;;;22.28;56.98;101315.75;5038626;28;4395;-75
2022/09/12 08:00:04;;;;;;;;;;;;;;;22.29;56.96;101323.03;5035287;28;5204;-72
2022/09/12 08:02:37;;;;;;;;;;;;;;;22.29;57.28;101313.63;5038995;28;5323;-72
2022/09/12 08:05:04;;;;;;;;;;;;;;;22.29;57.09;101319.41;5039700;28;4277;-75
2022/09/12 08:07:30;;;;;;;;;;;;;;;22.28;56.95;101315.75;5038984;28;4060;-73
2022/09/12 08:09:56;;;;;;;;;;;;;;;22.29;57.02;101317.25;5027829;28;4282;-75
2022/09/12 08:12:23;;;;;;;;;;;;;;;22.58;57.00;101319.28;5023957;28;4581;-74
2022/09/12 08:14:49;;;;;;;;;;;;;;;22.71;56.39;101323.44;5037480;28;4411;-72
2022/09/12 08:17:15;;;;;;;;;;;;;;;22.60;56.71;101315.75;5041093;28;4160;-71
2022/09/12 08:19:42;;;;;;;;;;;;;;;22.70;56.39;101324.09;5033234;28;4473;-71
2022/09/12 08:22:08;;;;;;;;;;;;;;;22.91;56.50;101332.25;5037376;28;4261;-71
2022/09/12 08:24:35;;;;;;;;;;;;;;;22.95;56.35;101323.78;5036679;28;4216;-70
2022/09/12 08:27:01;;;;;;;;;;;;;;;22.98;55.83;101330.38;5022864;28;4311;-70
2022/09/12 08:29:27;;;;;;;;;;;;;;;22.87;55.48;101326.31;5034544;28;4441;-72
2022/09/12 08:31:54;;;;;;;;;;;;;;;22.62;56.39;101317.97;5033027;28;5524;-77
2022/09/12 08:34:23;;;;;;;;;;;;;;;22.61;56.41;101316.47;5039345;28;4059;-67
2022/09/12 08:36:50;;;;;;;;;;;;;;;22.74;56.68;101324.28;5033953;28;5141;-73
2022/09/12 08:39:16;;;;;;;;;;;;;;;23.03;55.84;101314.75;5034958;28;4403;-73
2022/09/12 08:41:43;;;;;;;;;;;;;;;22.97;55.87;101317.31;5039656;28;4377;-75
2022/09/12 08:44:18;;;;;;;;;;;;;;;22.88;56.29;101322.00;5030670;28;5440;-67
2022/09/12 08:46:51;;;;;;;;;;;;;;;22.83;56.77;101320.34;5025969;28;4396;-69
2022/09/12 08:49:22;;;;;;;;;;;;;;;22.62;57.01;101317.97;5041697;28;4764;-66
2022/09/12 08:51:48;;;;;;;;;;;;;;;22.72;57.21;101316.28;5043952;28;5426;-67
2022/09/12 08:54:18;;;;;;;;;;;;;;;22.89;57.09;101314.84;5033983;28;4161;-68
2022/09/12 08:56:45;;;;;;;;;;;;;;;22.95;56.53;101314.34;5033317;28;4076;-69
2022/09/12 08:59:12;;;;;;;;;;;;;;;22.88;57.08;101316.22;5044323;28;4348;-68
2022/09/12 09:01:42;;;;;;;;;;;;;;;22.96;56.58;101313.69;5035522;28;4035;-69
2022/09/12 09:04:09;;;;;;;;;;;;;;;23.10;56.08;101318.63;5033636;28;3999;-69
2022/09/12 09:06:53;;;;;;;;;;;;;;;23.10;56.09;101312.84;5034153;28;3993;-68
2022/09/12 09:09:23;;;;;;;;;;;;;;;23.06;56.28;101309.78;5025257;28;4217;-66
2022/09/12 09:12:02;;;;;;;;;;;;;;;23.15;56.15;101309.47;5033348;28;5325;-68
2022/09/12 09:14:47;;;;;;;;;;;;;;;23.21;56.30;101311.88;5036403;28;4156;-68
2022/09/12 09:17:24;;;;;;;;;;;;;;;23.19;55.89;101314.69;5038040;28;5531;-69
2022/09/12 09:19:52;;;;;;;;;;;;;;;23.23;55.88;101306.19;5052391;28;4224;-70
2022/09/12 09:22:31;;;;;;;;;;;;;;;23.21;56.11;101306.84;5039968;28;4274;-69
2022/09/12 09:25:01;;;;;;;;;;;;;;;23.21;56.24;101300.31;5059535;28;4188;-69
2022/09/12 09:27:32;;;;;;;;;;;;;;;23.24;55.87;101310.56;5059026;28;4244;-69
2022/09/12 09:30:11;;;;;;;;;;;;;;;23.06;56.64;101307.63;5040186;28;4236;-70
2022/09/12 09:32:37;;;;;;;;;;;;;;;23.06;56.42;101304.00;5051103;28;5300;-71
2022/09/12 09:35:33;;;;;;;;;;;;;;;23.19;56.38;101300.25;5050781;28;4215;-71
2022/09/12 09:38:17;;;;;;;;;;;;;;;23.31;55.84;101297.84;5035080;28;5174;-67
2022/09/12 09:40:50;;;;;;;;;;;;;;;23.24;56.28;101299.00;5036336;28;4853;-68
2022/09/12 09:43:21;;;;;;;;;;;;;;;23.03;57.12;101296.66;5027207;28;4162;-68
2022/09/12 09:45:48;;;;;;;;;;;;;;;23.15;56.80;101292.13;5048028;28;4169;-70
2022/09/12 09:48:27;;;;;;;;;;;;;;;23.16;56.64;101292.91;5040259;28;5127;-70
2022/09/12 09:50:55;;;;;;;;;;;;;;;23.14;56.46;101295.69;5036260;28;4397;-76
2022/09/12 09:53:41;;;;;;;;;;;;;;;23.16;56.51;101290.00;5036687;28;4233;-74
2022/09/12 09:56:25;;;;;;;;;;;;;;;23.22;56.28;101290.25;5038740;28;4034;-70
2022/09/12 09:58:51;;;;;;;;;;;;;;;23.19;56.53;101285.78;5037163;28;5328;-68
2022/09/12 10:01:18;;;;;;;;;;;;;;;23.14;56.32;101284.13;5050909;28;5276;-71
2022/09/12 10:03:48;;;;;;;;;;;;;;;23.32;56.23;101287.03;5034521;28;4213;-73
2022/09/12 10:06:21;;;;;;;;;;;;;;;23.41;56.13;101283.09;5039958;28;4272;-73
2022/09/12 10:08:48;;;;;;;;;;;;;;;23.46;55.71;101278.94;5037799;28;4173;-68
2022/09/12 10:11:14;;;;;;;;;;;;;;;23.23;56.60;101280.19;5028176;28;4893;-69
2022/09/12 10:13:55;;;;;;;;;;;;;;;23.33;56.09;101280.59;5037009;28;4225;-64
2022/09/12 10:16:23;;;;;;;;;;;;;;;23.53;56.26;101283.56;5043989;28;4215;-67
2022/09/12 10:18:52;;;;;;;;;;;;;;;23.62;55.61;101278.84;5042896;28;6509;-68
2022/09/12 10:21:24;;;;;;;;;;;;;;;23.41;55.50;101289.59;5066981;28;4315;-69
2022/09/12 10:23:51;;;;;;;;;;;;;;;23.30;55.90;101290.59;5047185;28;4207;-68
2022/09/12 10:26:18;;;;;;;;;;;;;;;23.35;55.89;101297.28;5046130;28;4151;-70
2022/09/12 10:28:44;;;;;;;;;;;;;;;23.39;56.20;101280.09;5056918;28;5534;-71
2022/09/12 10:31:14;;;;;;;;;;;;;;;23.26;56.42;101278.13;5044463;28;5404;-70
2022/09/12 10:33:46;;;;;;;;;;;;;;;23.17;56.57;101282.81;5035346;28;4582;-68
2022/09/12 10:36:13;;;;;;;;;;;;;;;23.40;56.27;101273.66;5038527;28;4182;-64
2022/09/12 10:38:39;;;;;;;;;;;;;;;23.30;55.42;101279.03;5048203;28;4185;-69
2022/09/12 10:41:06;;;;;;;;;;;;;;;22.93;56.53;101276.72;5039778;28;4348;-59
2022/09/12 10:43:32;;;;;;;;;;;;;;;22.89;56.37;101277.31;5035148;28;4054;-62
2022/09/12 10:46:10;;;;;;;;;;;;;;;23.30;56.28;101284.06;5040097;28;4230;-75
2022/09/12 10:48:36;;;;;;;;;;;;;;;23.45;55.92;101271.66;5056661;28;4082;-74
2022/09/12 10:51:03;;;;;;;;;;;;;;;23.50;55.45;101289.91;5041214;28;4250;-75
2022/09/12 10:53:40;;;;;;;;;;;;;;;23.44;54.77;101278.13;5035443;28;4219;-75
2022/09/12 10:56:25;;;;;;;;;;;;;;;23.46;55.25;101273.16;5060305;28;4261;-76
2022/09/12 10:59:03;;;;;;;;;;;;;;;23.49;55.63;101279.75;5040531;28;4664;-69
2022/09/12 11:01:33;;;;;;;;;;;;;;;23.51;55.22;101268.28;5054351;28;4153;-71
2022/09/12 11:04:14;;;;;;;;;;;;;;;23.42;55.79;101273.72;5058385;28;4241;-76
2022/09/12 11:06:47;;;;;;;;;;;;;;;23.35;55.88;101274.91;5054822;28;4174;-71
2022/09/12 11:09:17;;;;;;;;;;;;;;;23.30;56.23;101273.25;5034239;28;4198;-69
2022/09/12 11:11:56;;;;;;;;;;;;;;;23.37;55.82;101266.31;5040630;28;4037;-69
2022/09/12 11:14:35;;;;;;;;;;;;;;;23.34;56.15;101273.41;5048917;28;4310;-71
2022/09/12 11:17:04;;;;;;;;;;;;;;;23.68;55.34;101264.63;5018368;28;5514;-80
2022/09/12 11:19:50;;;;;;;;;;;;;;;23.70;55.06;101269.75;5020517;28;5343;-79
2022/09/12 11:22:35;;;;;;;;;;;;;;;23.73;54.98;101268.41;5038320;28;4280;-76
2022/09/12 11:25:05;;;;;;;;;;;;;;;23.56;55.38;101264.16;5038526;28;4022;-79
2022/09/12 11:27:34;;;;;;;;;;;;;;;23.56;55.47;101259.09;5038432;28;4194;-76
2022/09/12 11:30:02;;;;;;;;;;;;;;;23.51;55.48;101256.72;5055303;28;5378;-78
2022/09/12 11:32:44;;;;;;;;;;;;;;;23.51;55.61;101268.28;5055046;28;4246;-80
2022/09/12 11:35:29;;;;;;;;;;;;;;;23.41;55.95;101257.81;5037303;28;5305;-79
2022/09/12 11:38:07;;;;;;;;;;;;;;;23.54;55.81;101255.41;5041415;28;4164;-79
2022/09/12 11:40:54;;;;;;;;;;;;;;;23.55;55.51;101251.84;5043167;28;5447;-77
2022/09/12 11:43:40;;;;;;;;;;;;;;;23.58;55.56;101255.56;5043415;28;4190;-76
2022/09/12 11:46:17;;;;;;;;;;;;;;;23.64;55.59;101252.91;5041192;28;4168;-71
2022/09/12 11:48:48;;;;;;;;;;;;;;;23.64;52.87;101247.13;5036541;28;4571;-75
2022/09/12 11:51:16;;;;;;;;;;;;;;;23.49;52.63;101245.09;5057986;28;4160;-77
2022/09/12 11:53:42;;;;;;;;;;;;;;;23.54;52.34;101240.94;5035780;28;5249;-78
2022/09/12 11:56:15;;;;;;;;;;;;;;;23.63;52.56;101245.63;5040786;28;4275;-77
2022/09/12 11:58:41;;;;;;;;;;;;;;;23.49;53.69;101242.19;5052195;28;4104;-73
2022/09/12 12:01:19;;;;;;;;;;;;;;;23.49;54.19;101242.19;5057433;28;4073;-80
2022/09/12 12:03:46;;;;;;;;;;;;;;;23.58;54.07;101238.94;5045023;28;4283;-73
2022/09/12 12:06:19;;;;;;;;;;;;;;;23.59;54.03;101240.44;5037384;28;4521;-68
2022/09/12 12:08:46;;;;;;;;;;;;;;;23.62;54.47;101238.38;5036039;28;4244;-71
2022/09/12 12:11:13;;;;;;;;;;;;;;;23.66;54.36;101238.50;5054215;28;4513;-77
2022/09/12 12:13:43;;;;;;;;;;;;;;;23.71;53.90;101233.63;5042532;28;4916;-79
2022/09/12 12:16:13;;;;;;;;;;;;;;;23.71;54.05;101236.53;5049565;28;5306;-70
2022/09/12 12:18:39;;;;;;;;;;;;;;;23.66;54.18;101232.72;5042945;28;4093;-76
2022/09/12 12:21:18;;;;;;;;;;;;;;;23.65;54.71;101231.25;5037458;28;4247;-74
2022/09/12 12:24:04;;;;;;;;;;;;;;;23.71;54.68;101222.06;5052388;28;5232;-73
2022/09/12 12:26:39;;;;;;;;;;;;;;;23.78;54.59;101227.47;5041041;28;4314;-76
2022/09/12 12:29:26;;;;;;;;;;;;;;;23.79;54.61;101228.19;5039569;28;4036;-75
2022/09/12 12:31:58;;;;;;;;;;;;;;;23.74;54.71;101217.88;5035709;28;4200;-77
2022/09/12 12:34:34;;;;;;;;;;;;;;;23.73;54.66;101219.25;5039118;28;4232;-73
2022/09/12 12:37:18;;;;;;;;;;;;;;;23.70;54.91;101212.66;5050510;28;4331;-72
2022/09/12 12:39:44;;;;;;;;;;;;;;;23.73;54.93;101220.00;5038127;28;5212;-78
2022/09/12 12:42:31;;;;;;;;;;;;;;;23.77;54.97;101217.28;5037933;28;5287;-71
2022/09/12 12:45:02;;;;;;;;;;;;;;;23.88;53.93;101217.69;5036292;28;4339;-72
2022/09/12 12:47:31;;;;;;;;;;;;;;;23.55;54.33;101213.53;5035994;28;4305;-72
2022/09/12 12:50:00;;;;;;;;;;;;;;;23.29;54.01;101219.75;5035802;28;4249;-72
2022/09/12 12:52:27;;;;;;;;;;;;;;;23.15;54.56;101217.03;5039784;28;4131;-72
2022/09/12 12:54:54;;;;;;;;;;;;;;;23.15;54.18;101211.25;5034621;28;4402;-72
2022/09/12 12:57:20;;;;;;;;;;;;;;;23.12;53.45;101211.84;5054555;28;4546;-72
2022/09/12 12:59:47;;;;;;;;;;;;;;;23.17;53.88;101213.47;5034713;28;4246;-71
2022/09/12 13:02:18;;;;;;;;;;;;;;;23.12;53.53;101211.84;5036326;28;4271;-72